createdAt,value
2022-11-23T00:01:23.441Z,3.17
2022-11-23T00:03:55.295Z,2.47
2022-11-23T00:06:23.423Z,2.63
2022-11-23T00:08:50.728Z,2.73
2022-11-23T00:11:18.241Z,2.40
2022-11-23T00:13:45.355Z,2.47
2022-11-23T00:16:15.075Z,2.57
2022-11-23T00:18:41.990Z,1.60
2022-11-23T00:21:14.645Z,5.27
2022-11-23T00:23:41.877Z,4.60
2022-11-23T00:26:08.860Z,4.27
2022-11-23T00:28:38.898Z,3.27
2022-11-23T00:31:10.364Z,2.90
2022-11-23T00:33:37.581Z,3.47
2022-11-23T00:36:10.962Z,2.70
2022-11-23T00:38:37.958Z,4.33
2022-11-23T00:41:10.332Z,5.13
2022-11-23T00:43:37.012Z,5.37
2022-11-23T00:46:16.338Z,3.90
2022-11-23T00:48:44.317Z,3.57
2022-11-23T00:51:13.704Z,3.50
2022-11-23T00:53:40.574Z,5.57
2022-11-23T00:56:07.798Z,1.37
2022-11-23T00:58:34.944Z,3.80
2022-11-23T01:01:11.444Z,8.47
2022-11-23T01:03:40.422Z,6.67
2022-11-23T01:06:15.186Z,7.00
2022-11-23T01:08:42.861Z,4.37
2022-11-23T01:11:12.198Z,7.47
2022-11-23T01:13:40.322Z,9.23
2022-11-23T01:16:18.235Z,8.13
2022-11-23T01:18:52.739Z,5.37
2022-11-23T01:21:19.325Z,6.73
2022-11-23T01:23:45.884Z,4.27
2022-11-23T01:26:12.512Z,2.60
2022-11-23T01:28:40.088Z,2.90
2022-11-23T01:31:15.192Z,5.00
2022-11-23T01:33:42.832Z,5.47
2022-11-23T01:36:14.259Z,2.93
2022-11-23T01:38:41.930Z,3.30
2022-11-23T01:41:11.746Z,2.43
2022-11-23T01:43:38.443Z,4.63
2022-11-23T01:46:05.956Z,3.93
2022-11-23T01:48:35.169Z,4.47
2022-11-23T01:51:06.094Z,1.57
2022-11-23T01:53:33.359Z,4.73
2022-11-23T01:56:02.135Z,4.37
2022-11-23T01:58:32.311Z,6.97
2022-11-23T02:00:58.897Z,5.77
2022-11-23T02:03:25.812Z,4.67
2022-11-23T02:06:00.161Z,7.30
2022-11-23T02:08:27.286Z,6.00
2022-11-23T02:10:54.944Z,5.40
2022-11-23T02:13:22.469Z,6.27
2022-11-23T02:15:49.221Z,7.17
2022-11-23T02:18:19.997Z,4.03
2022-11-23T02:20:46.845Z,7.63
2022-11-23T02:23:34.971Z,5.67
2022-11-23T02:26:21.858Z,5.57
2022-11-23T02:28:53.142Z,5.73
2022-11-23T02:31:19.818Z,2.20
2022-11-23T02:33:46.411Z,1.77
2022-11-23T02:36:22.300Z,5.63
2022-11-23T02:38:48.944Z,4.60
2022-11-23T02:41:15.505Z,3.70
2022-11-23T02:43:42.239Z,6.33
2022-11-23T02:46:09.121Z,5.37
2022-11-23T02:48:35.710Z,7.10
2022-11-23T02:51:02.323Z,4.20
2022-11-23T02:53:28.893Z,4.03
2022-11-23T02:55:55.554Z,5.77
2022-11-23T02:58:22.174Z,5.67
2022-11-23T03:00:48.846Z,3.77
2022-11-23T03:03:15.463Z,3.33
2022-11-23T03:05:42.026Z,4.27
2022-11-23T03:08:08.634Z,2.67
2022-11-23T03:10:35.403Z,6.33
2022-11-23T03:13:02.014Z,3.33
2022-11-23T03:15:28.816Z,6.50
2022-11-23T03:17:57.139Z,3.53
2022-11-23T03:20:23.726Z,6.37
2022-11-23T03:22:50.309Z,5.17
2022-11-23T03:25:17.058Z,6.20
2022-11-23T03:27:43.694Z,7.10
2022-11-23T03:30:10.560Z,6.80
2022-11-23T03:32:37.415Z,5.83
2022-11-23T03:35:05.082Z,10.83
2022-11-23T03:37:31.785Z,4.87
2022-11-23T03:39:58.360Z,5.07
2022-11-23T03:42:25.040Z,5.70
2022-11-23T03:44:51.614Z,6.03
2022-11-23T03:47:18.203Z,8.47
2022-11-23T03:49:44.815Z,5.83
2022-11-23T03:52:11.418Z,9.30
2022-11-23T03:54:38.034Z,6.63
2022-11-23T03:57:04.647Z,5.27
2022-11-23T03:59:31.506Z,8.73
2022-11-23T04:01:58.417Z,5.50
2022-11-23T04:04:25.083Z,7.30
2022-11-23T04:06:51.666Z,3.13
2022-11-23T04:09:18.234Z,3.63
2022-11-23T04:11:44.822Z,5.80
2022-11-23T04:14:11.496Z,6.47
2022-11-23T04:16:38.061Z,6.00
2022-11-23T04:19:04.664Z,5.83
2022-11-23T04:21:31.297Z,7.33
2022-11-23T04:23:57.850Z,5.60
2022-11-23T04:26:24.480Z,3.20
2022-11-23T04:28:51.085Z,6.97
2022-11-23T04:31:17.694Z,5.10
2022-11-23T04:33:44.365Z,8.90
2022-11-23T04:36:10.930Z,6.70
2022-11-23T04:38:37.528Z,6.07
2022-11-23T04:41:04.210Z,4.30
2022-11-23T04:43:31.969Z,5.17
2022-11-23T04:45:58.516Z,7.37
2022-11-23T04:48:28.185Z,7.60
2022-11-23T04:50:55.927Z,7.50
2022-11-23T04:53:22.624Z,7.60
2022-11-23T04:55:49.243Z,6.17
2022-11-23T04:58:15.808Z,6.07
2022-11-23T05:00:42.465Z,4.70
2022-11-23T05:03:09.106Z,5.57
2022-11-23T05:05:38.825Z,3.63
2022-11-23T05:08:05.692Z,6.37
2022-11-23T05:10:32.477Z,4.23
2022-11-23T05:12:59.265Z,4.23
2022-11-23T05:15:26.301Z,4.40
2022-11-23T05:17:57.704Z,3.20
2022-11-23T05:20:25.641Z,3.33
2022-11-23T05:22:52.578Z,3.70
2022-11-23T05:25:19.287Z,7.27
2022-11-23T05:27:45.909Z,3.07
2022-11-23T05:30:13.065Z,4.87
2022-11-23T05:32:39.670Z,3.17
2022-11-23T05:35:06.923Z,2.13
2022-11-23T05:37:34.669Z,3.30
2022-11-23T05:40:01.748Z,5.37
2022-11-23T05:42:28.366Z,6.40
2022-11-23T05:44:54.959Z,3.37
2022-11-23T05:47:21.551Z,9.33
2022-11-23T05:49:48.175Z,4.03
2022-11-23T05:52:14.852Z,4.90
2022-11-23T05:54:41.487Z,3.87
2022-11-23T05:57:08.258Z,5.90
2022-11-23T05:59:35.110Z,5.73
2022-11-23T06:02:01.868Z,5.43
2022-11-23T06:04:28.643Z,5.73
2022-11-23T06:06:55.369Z,3.57
2022-11-23T06:09:21.987Z,3.63
2022-11-23T06:11:48.632Z,6.53
2022-11-23T06:14:15.342Z,3.87
2022-11-23T06:16:41.966Z,4.33
2022-11-23T06:19:08.653Z,9.27
2022-11-23T06:21:35.421Z,5.80
2022-11-23T06:24:02.053Z,4.87
2022-11-23T06:26:28.651Z,3.67
2022-11-23T06:28:55.355Z,4.57
2022-11-23T06:31:21.981Z,7.47
2022-11-23T06:33:48.715Z,5.00
2022-11-23T06:36:16.062Z,2.77
2022-11-23T06:38:42.767Z,4.33
2022-11-23T06:41:09.521Z,8.23
2022-11-23T06:43:36.301Z,2.97
2022-11-23T06:46:07.670Z,3.80
2022-11-23T06:48:34.315Z,6.13
2022-11-23T06:51:01.643Z,7.97
2022-11-23T06:53:29.138Z,4.30
2022-11-23T06:56:02.629Z,3.20
2022-11-23T06:58:29.305Z,3.23
2022-11-23T07:01:00.626Z,3.43
2022-11-23T07:03:27.281Z,4.77
2022-11-23T07:05:53.970Z,5.60
2022-11-23T07:08:21.018Z,4.33
2022-11-23T07:10:48.331Z,4.87
2022-11-23T07:13:15.006Z,6.47
2022-11-23T07:15:42.280Z,4.60
2022-11-23T07:18:12.067Z,7.43
2022-11-23T07:20:39.072Z,3.43
2022-11-23T07:23:07.564Z,6.47
2022-11-23T07:25:36.141Z,5.33
2022-11-23T07:28:04.113Z,4.93
2022-11-23T07:30:31.660Z,4.87
2022-11-23T07:33:12.045Z,8.30
2022-11-23T07:35:40.302Z,5.17
2022-11-23T07:38:08.586Z,7.17
2022-11-23T07:40:38.999Z,5.47
2022-11-23T07:43:06.732Z,4.60
2022-11-23T07:45:33.724Z,4.93
2022-11-23T07:48:06.252Z,7.23
2022-11-23T07:50:33.426Z,3.60
2022-11-23T07:53:02.121Z,5.00
2022-11-23T07:55:28.757Z,6.83
2022-11-23T07:57:55.438Z,4.93
2022-11-23T08:00:26.634Z,5.93
2022-11-23T08:03:25.476Z,6.53
2022-11-23T08:05:40.100Z,6.30
2022-11-23T08:08:06.906Z,5.70
2022-11-23T08:10:33.952Z,3.47
2022-11-23T08:13:08.440Z,4.23
2022-11-23T08:15:36.003Z,4.37
2022-11-23T08:18:03.856Z,4.03
2022-11-23T08:20:31.100Z,7.37
2022-11-23T08:22:58.098Z,3.73
2022-11-23T08:25:29.540Z,5.00
2022-11-23T08:28:01.043Z,6.10
2022-11-23T08:30:28.981Z,3.73
2022-11-23T08:33:13.976Z,5.90
2022-11-23T08:35:42.254Z,5.50
2022-11-23T08:38:10.136Z,3.90
2022-11-23T08:40:37.415Z,4.93
2022-11-23T08:43:04.937Z,4.10
2022-11-23T08:45:31.677Z,4.27
2022-11-23T08:48:02.403Z,7.00
2022-11-23T08:50:32.355Z,4.83
2022-11-23T08:53:00.123Z,3.87
2022-11-23T08:55:27.934Z,3.63
2022-11-23T08:57:58.437Z,3.27
2022-11-23T09:00:25.646Z,6.20
2022-11-23T09:02:52.275Z,4.30
2022-11-23T09:05:18.880Z,4.73
2022-11-23T09:07:45.533Z,5.43
2022-11-23T09:10:17.716Z,6.47
2022-11-23T09:12:44.869Z,4.53
2022-11-23T09:15:11.680Z,5.20
2022-11-23T09:17:38.285Z,5.57
2022-11-23T09:20:05.448Z,4.20
2022-11-23T09:22:32.189Z,8.77
2022-11-23T09:24:58.808Z,9.40
2022-11-23T09:27:25.829Z,6.17
2022-11-23T09:29:52.418Z,6.67
2022-11-23T09:32:19.045Z,5.87
2022-11-23T09:34:45.626Z,8.40
2022-11-23T09:37:13.265Z,7.47
2022-11-23T09:39:39.942Z,6.10
2022-11-23T09:42:40.644Z,5.10
2022-11-23T09:45:11.374Z,7.57
2022-11-23T09:48:01.398Z,4.87
2022-11-23T09:50:30.569Z,9.47
2022-11-23T09:52:57.143Z,10.93
2022-11-23T09:55:38.898Z,7.07
2022-11-23T09:58:06.646Z,5.00
2022-11-23T10:00:44.900Z,8.83
2022-11-23T10:03:16.517Z,5.63
2022-11-23T10:05:48.430Z,8.17
2022-11-23T10:08:22.858Z,5.50
2022-11-23T10:10:59.937Z,4.53
2022-11-23T10:13:34.837Z,5.33
2022-11-23T10:16:22.764Z,6.73
2022-11-23T10:19:10.605Z,8.63
2022-11-23T10:22:10.468Z,5.00
2022-11-23T10:24:42.659Z,4.13
2022-11-23T10:27:15.186Z,8.10
2022-11-23T10:29:42.448Z,3.97
2022-11-23T10:32:46.653Z,3.50
2022-11-23T10:35:16.172Z,6.70
2022-11-23T10:37:42.925Z,4.50
2022-11-23T10:40:29.758Z,8.50
2022-11-23T10:43:02.964Z,7.83
2022-11-23T10:45:29.952Z,6.83
2022-11-23T10:48:01.469Z,6.80
2022-11-23T10:50:37.415Z,4.40
2022-11-23T10:53:10.030Z,4.83
2022-11-23T10:55:47.775Z,5.07
2022-11-23T10:58:37.825Z,5.67
2022-11-23T11:01:16.523Z,4.40
2022-11-23T11:03:44.549Z,4.60
2022-11-23T11:06:11.907Z,6.50
2022-11-23T11:09:18.351Z,5.33
2022-11-23T11:11:52.040Z,4.70
2022-11-23T11:14:20.792Z,5.17
2022-11-23T11:16:52.423Z,5.17
2022-11-23T11:19:30.540Z,3.53
2022-11-23T11:21:58.623Z,6.33
2022-11-23T11:24:34.652Z,5.73
2022-11-23T11:27:07.093Z,7.27
2022-11-23T11:29:38.971Z,2.80
2022-11-23T11:32:06.612Z,6.80
2022-11-23T11:34:42.497Z,7.77
2022-11-23T11:37:14.209Z,3.83
2022-11-23T11:39:49.821Z,3.40
2022-11-23T11:42:37.119Z,5.53
2022-11-23T11:45:05.584Z,7.00
2022-11-23T11:47:37.562Z,4.90
2022-11-23T11:50:31.172Z,4.00
2022-11-23T11:53:12.245Z,3.17
2022-11-23T11:56:03.854Z,5.10
2022-11-23T11:58:31.281Z,2.57
2022-11-23T12:01:09.393Z,3.87
2022-11-23T12:03:42.679Z,2.70
2022-11-23T12:06:16.332Z,7.43
2022-11-23T12:09:04.372Z,5.37
2022-11-23T12:11:30.981Z,4.43
2022-11-23T12:14:02.129Z,3.37
2022-11-23T12:16:38.650Z,3.97
2022-11-23T12:19:10.635Z,5.20
2022-11-23T12:22:04.030Z,3.57
2022-11-23T12:24:51.432Z,2.80
2022-11-23T12:27:30.171Z,6.03
2022-11-23T12:30:19.168Z,3.87
2022-11-23T12:33:13.943Z,3.70
2022-11-23T12:36:00.092Z,5.43
2022-11-23T12:38:46.288Z,1.60
2022-11-23T12:41:23.693Z,5.40
2022-11-23T12:43:58.547Z,1.33
2022-11-23T12:46:44.057Z,2.07
2022-11-23T12:49:19.496Z,3.30
2022-11-23T12:52:19.933Z,3.77
2022-11-23T12:55:19.605Z,4.57
2022-11-23T12:58:00.850Z,3.83
2022-11-23T13:00:35.236Z,6.53
2022-11-23T13:03:26.447Z,5.23
2022-11-23T13:06:11.774Z,4.57
2022-11-23T13:09:03.223Z,3.50
2022-11-23T13:12:08.467Z,3.67
2022-11-23T13:14:57.565Z,5.40
2022-11-23T13:17:38.256Z,10.67
2022-11-23T13:20:43.721Z,4.73
2022-11-23T13:23:10.454Z,5.37
2022-11-23T13:25:37.118Z,4.07
2022-11-23T13:28:05.935Z,4.80
2022-11-23T13:31:14.063Z,4.17
2022-11-23T13:33:32.854Z,5.70
2022-11-23T13:36:09.513Z,5.47
2022-11-23T13:38:42.893Z,2.50
2022-11-23T13:41:34.473Z,5.67
2022-11-23T13:44:31.565Z,6.63
2022-11-23T13:47:01.531Z,4.30
2022-11-23T13:49:45.565Z,5.80
2022-11-23T13:52:21.445Z,4.93
2022-11-23T13:55:03.947Z,4.73
2022-11-23T13:57:34.400Z,3.80
2022-11-23T14:00:38.683Z,3.90
2022-11-23T14:03:42.842Z,3.27
2022-11-23T14:06:25.307Z,4.23
2022-11-23T14:09:20.281Z,5.40
2022-11-23T14:12:03.172Z,3.43
2022-11-23T14:14:46.145Z,4.17
2022-11-23T14:17:34.905Z,2.93
2022-11-23T14:20:18.188Z,2.77
2022-11-23T14:23:03.879Z,3.07
2022-11-23T14:25:53.040Z,3.30
2022-11-23T14:28:34.517Z,2.53
2022-11-23T14:31:12.176Z,3.97
2022-11-23T14:34:10.347Z,2.87
2022-11-23T14:37:16.162Z,3.60
2022-11-23T14:40:01.551Z,2.40
2022-11-23T14:42:29.700Z,4.20
2022-11-23T14:44:58.446Z,2.67
2022-11-23T14:47:30.835Z,3.37
2022-11-23T14:49:58.138Z,2.23
2022-11-23T14:52:25.979Z,3.37
2022-11-23T14:54:55.286Z,5.73
2022-11-23T14:57:24.107Z,1.97
2022-11-23T14:59:55.571Z,2.97
2022-11-23T15:02:34.498Z,4.03
2022-11-23T15:05:21.069Z,4.20
2022-11-23T15:07:54.480Z,5.70
2022-11-23T15:10:33.301Z,2.40
2022-11-23T15:13:00.032Z,5.13
2022-11-23T15:15:30.110Z,4.43
2022-11-23T15:17:57.520Z,5.00
2022-11-23T15:20:28.109Z,3.50
2022-11-23T15:22:54.869Z,4.13
2022-11-23T15:25:21.817Z,4.73
2022-11-23T15:27:49.377Z,5.37
2022-11-23T15:30:21.858Z,3.23
2022-11-23T15:32:59.973Z,4.87
2022-11-23T15:35:32.457Z,2.50
2022-11-23T15:38:00.658Z,2.30
2022-11-23T15:40:33.086Z,3.13
2022-11-23T15:42:59.873Z,4.93
2022-11-23T15:45:38.753Z,2.17
2022-11-23T15:48:17.674Z,1.97
2022-11-23T15:50:51.268Z,2.67
2022-11-23T15:53:18.516Z,5.27
2022-11-23T15:55:45.447Z,3.53
2022-11-23T15:58:16.930Z,2.40
2022-11-23T16:00:56.484Z,4.80
2022-11-23T16:03:35.222Z,5.63
2022-11-23T16:06:15.730Z,7.43
2022-11-23T16:08:42.383Z,3.87
2022-11-23T16:11:35.223Z,4.63
2022-11-23T16:14:12.571Z,9.40
2022-11-23T16:16:45.253Z,5.93
2022-11-23T16:19:28.483Z,3.60
2022-11-23T16:22:04.459Z,3.50
2022-11-23T16:24:33.149Z,4.23
2022-11-23T16:27:00.241Z,6.00
2022-11-23T16:29:35.974Z,5.03
2022-11-23T16:32:04.188Z,4.67
2022-11-23T16:34:31.037Z,5.47
2022-11-23T16:36:59.324Z,6.30
2022-11-23T16:39:27.944Z,6.53
2022-11-23T16:41:54.917Z,4.90
2022-11-23T16:44:21.617Z,5.33
2022-11-23T16:46:48.449Z,4.97
2022-11-23T16:49:20.417Z,7.70
2022-11-23T16:51:56.188Z,3.83
2022-11-23T16:54:33.993Z,6.87
2022-11-23T16:57:00.833Z,6.13
2022-11-23T16:59:27.474Z,6.90
2022-11-23T17:01:57.246Z,4.27
2022-11-23T17:04:25.087Z,4.87
2022-11-23T17:06:51.803Z,3.20
2022-11-23T17:09:18.448Z,6.90
2022-11-23T17:11:46.873Z,4.43
2022-11-23T17:14:18.533Z,3.97
2022-11-23T17:16:46.246Z,5.70
2022-11-23T17:19:17.588Z,4.03
2022-11-23T17:21:44.522Z,4.50
2022-11-23T17:24:11.670Z,6.47
2022-11-23T17:26:48.761Z,5.47
2022-11-23T17:29:19.574Z,6.30
2022-11-23T17:31:47.248Z,4.40
2022-11-23T17:34:14.732Z,4.23
2022-11-23T17:36:45.885Z,3.93
2022-11-23T17:39:24.255Z,3.10
2022-11-23T17:41:51.146Z,5.97
2022-11-23T17:44:17.941Z,7.10
2022-11-23T17:46:45.182Z,6.70
2022-11-23T17:49:13.661Z,5.40
2022-11-23T17:51:40.311Z,5.57
2022-11-23T17:54:06.977Z,4.47
2022-11-23T17:56:33.682Z,3.37
2022-11-23T17:59:00.790Z,5.30
2022-11-23T18:01:28.164Z,2.83
2022-11-23T18:03:56.472Z,5.10
2022-11-23T18:06:25.601Z,2.80
2022-11-23T18:08:52.390Z,4.33
2022-11-23T18:11:20.065Z,5.10
2022-11-23T18:13:48.906Z,3.23
2022-11-23T18:16:16.111Z,5.23
2022-11-23T18:18:42.928Z,3.93
2022-11-23T18:21:10.972Z,3.87
2022-11-23T18:23:37.797Z,5.00
2022-11-23T18:26:06.769Z,3.37
2022-11-23T18:28:33.366Z,2.23
2022-11-23T18:31:00.081Z,3.93
2022-11-23T18:33:27.255Z,2.53
2022-11-23T18:35:53.910Z,3.73
2022-11-23T18:38:20.625Z,2.90
2022-11-23T18:40:47.374Z,3.43
2022-11-23T18:43:13.991Z,3.30
2022-11-23T18:45:40.810Z,2.47
2022-11-23T18:48:09.054Z,4.33
2022-11-23T18:50:36.425Z,2.90
2022-11-23T18:53:03.167Z,4.03
2022-11-23T18:55:30.087Z,4.00
2022-11-23T18:57:56.784Z,4.77
2022-11-23T19:00:23.551Z,3.13
2022-11-23T19:03:02.713Z,4.47
2022-11-23T19:05:33.569Z,3.20
2022-11-23T19:08:06.550Z,4.90
2022-11-23T19:10:35.452Z,3.67
2022-11-23T19:13:05.371Z,4.43
2022-11-23T19:15:33.315Z,4.87
2022-11-23T19:18:00.181Z,3.33
2022-11-23T19:20:28.950Z,4.63
2022-11-23T19:22:56.032Z,3.67
2022-11-23T19:25:22.683Z,5.73
2022-11-23T19:27:51.458Z,3.83
2022-11-23T19:30:18.444Z,2.97
2022-11-23T19:32:45.048Z,3.07
2022-11-23T19:35:11.724Z,2.70
2022-11-23T19:37:38.880Z,4.00
2022-11-23T19:40:06.199Z,3.67
2022-11-23T19:42:35.792Z,2.97
2022-11-23T19:45:03.453Z,3.07
2022-11-23T19:47:31.613Z,2.30
2022-11-23T19:49:59.184Z,2.40
2022-11-23T19:52:48.071Z,4.23
2022-11-23T19:55:16.171Z,2.00
2022-11-23T19:57:42.888Z,2.60
2022-11-23T20:00:10.063Z,4.70
2022-11-23T20:02:36.679Z,2.77
2022-11-23T20:05:03.549Z,4.17
2022-11-23T20:07:31.548Z,4.93
2022-11-23T20:09:58.247Z,2.20
2022-11-23T20:12:24.871Z,6.17
2022-11-23T20:14:51.427Z,2.47
2022-11-23T20:17:18.101Z,6.50
2022-11-23T20:19:44.764Z,3.47
2022-11-23T20:22:11.367Z,3.20
2022-11-23T20:24:38.470Z,4.73
2022-11-23T20:27:05.381Z,3.10
2022-11-23T20:29:32.531Z,2.93
2022-11-23T20:31:59.508Z,3.60
2022-11-23T20:34:26.481Z,4.53
2022-11-23T20:36:53.245Z,5.10
2022-11-23T20:39:19.965Z,5.83
2022-11-23T20:41:49.424Z,5.30
2022-11-23T20:44:16.116Z,5.57
2022-11-23T20:47:01.280Z,4.23
2022-11-23T20:49:30.103Z,3.00
2022-11-23T20:51:57.084Z,2.93
2022-11-23T20:54:23.676Z,5.07
2022-11-23T20:56:50.280Z,4.33
2022-11-23T20:59:17.361Z,6.63
2022-11-23T21:01:44.031Z,4.83
2022-11-23T21:04:10.797Z,5.73
2022-11-23T21:06:39.927Z,4.97
2022-11-23T21:09:07.895Z,4.90
2022-11-23T21:11:53.111Z,4.60
2022-11-23T21:14:21.639Z,5.43
2022-11-23T21:16:53.498Z,6.00
2022-11-23T21:19:24.690Z,5.80
2022-11-23T21:21:51.596Z,7.77
2022-11-23T21:24:18.965Z,3.70
2022-11-23T21:26:46.068Z,5.50
2022-11-23T21:29:13.034Z,7.07
2022-11-23T21:31:41.907Z,10.40
2022-11-23T21:34:12.403Z,6.07
2022-11-23T21:36:39.860Z,9.93
2022-11-23T21:39:08.674Z,8.13
2022-11-23T21:41:35.969Z,7.07
2022-11-23T21:44:02.939Z,11.27
2022-11-23T21:46:29.552Z,5.80
2022-11-23T21:48:58.368Z,9.73
2022-11-23T21:51:27.105Z,8.47
2022-11-23T21:53:54.435Z,7.00
2022-11-23T21:56:21.507Z,7.93
2022-11-23T21:58:48.360Z,10.17
2022-11-23T22:01:18.213Z,7.63
2022-11-23T22:03:49.686Z,11.50
2022-11-23T22:06:20.386Z,10.93
2022-11-23T22:08:49.414Z,9.13
2022-11-23T22:11:18.380Z,10.33
2022-11-23T22:13:45.479Z,11.53
2022-11-23T22:16:20.840Z,13.23
2022-11-23T22:18:53.918Z,12.17
2022-11-23T22:21:24.049Z,11.70
2022-11-23T22:23:50.669Z,10.13
2022-11-23T22:26:19.047Z,9.57
2022-11-23T22:28:47.719Z,15.30
2022-11-23T22:31:19.307Z,10.80
2022-11-23T22:33:46.621Z,9.33
2022-11-23T22:36:15.932Z,10.57
2022-11-23T22:38:42.679Z,10.33
2022-11-23T22:41:11.314Z,10.27
2022-11-23T22:43:38.081Z,10.20
2022-11-23T22:46:06.767Z,11.03
2022-11-23T22:48:36.630Z,10.17
2022-11-23T22:51:03.727Z,12.13
2022-11-23T22:53:30.725Z,13.13
2022-11-23T22:56:04.914Z,10.00
2022-11-23T22:58:32.261Z,11.97
2022-11-23T23:01:07.617Z,7.80
2022-11-23T23:03:34.688Z,11.83
2022-11-23T23:06:02.287Z,9.43
2022-11-23T23:08:29.120Z,8.03
2022-11-23T23:10:56.076Z,11.97
2022-11-23T23:13:23.029Z,13.47
2022-11-23T23:15:59.606Z,14.20
2022-11-23T23:18:26.202Z,11.03
2022-11-23T23:21:00.394Z,8.90
2022-11-23T23:23:27.037Z,8.90
2022-11-23T23:25:54.274Z,7.87
2022-11-23T23:28:21.584Z,7.87
2022-11-23T23:30:48.164Z,9.50
2022-11-23T23:33:14.752Z,10.73
2022-11-23T23:35:41.446Z,14.57
2022-11-23T23:38:08.037Z,7.70
2022-11-23T23:40:34.651Z,11.23
2022-11-23T23:43:01.270Z,8.17
2022-11-23T23:45:28.108Z,10.60
2022-11-23T23:47:54.665Z,9.40
2022-11-23T23:50:21.255Z,7.50
2022-11-23T23:52:47.850Z,7.97
2022-11-23T23:55:14.516Z,15.27
2022-11-23T23:57:41.138Z,9.53
